createdAt,value
2023-05-18T00:01:04.023Z,102152.34
2023-05-18T00:03:37.012Z,102155.94
2023-05-18T00:06:08.241Z,102160.16
2023-05-18T00:08:38.777Z,102158.47
2023-05-18T00:11:11.839Z,102159.53
2023-05-18T00:13:42.079Z,102158.13
2023-05-18T00:16:16.188Z,102152.53
2023-05-18T00:18:46.467Z,102154.03
2023-05-18T00:21:16.691Z,102156.53
2023-05-18T00:23:49.759Z,102161.84
2023-05-18T00:26:25.197Z,102167.47
2023-05-18T00:28:58.765Z,102170.34
2023-05-18T00:31:29.425Z,102161.94
2023-05-18T00:34:08.756Z,102175.25
2023-05-18T00:36:56.745Z,102170.44
2023-05-18T00:39:37.547Z,102051.66
2023-05-18T00:42:10.715Z,102160.72
2023-05-18T00:44:40.814Z,102037.94
2023-05-18T00:47:23.631Z,102168.22
2023-05-18T00:49:56.430Z,102166.25
2023-05-18T00:52:33.032Z,102099.91
2023-05-18T00:55:04.620Z,102152.41
2023-05-18T00:57:38.515Z,102164.63
2023-05-18T01:00:11.064Z,102171.75
2023-05-18T01:02:43.190Z,102168.63
2023-05-18T01:05:22.512Z,102176.59
2023-05-18T01:07:53.393Z,102180.72
2023-05-18T01:10:23.699Z,102182.31
2023-05-18T01:13:00.754Z,102180.50
2023-05-18T01:15:35.353Z,102183.09
2023-05-18T01:18:15.431Z,102173.59
2023-05-18T01:20:50.318Z,102183.81
2023-05-18T01:23:56.802Z,102179.28
2023-05-18T01:26:33.159Z,102141.41
2023-05-18T01:29:08.169Z,102176.69
2023-05-18T01:31:40.093Z,102177.59
2023-05-18T01:34:10.170Z,102178.06
2023-05-18T01:36:42.243Z,102178.06
2023-05-18T01:39:13.168Z,102183.06
2023-05-18T01:41:52.700Z,102183.56
2023-05-18T01:44:29.922Z,102186.06
2023-05-18T01:47:03.640Z,102173.91
2023-05-18T01:49:42.309Z,102168.50
2023-05-18T01:52:25.036Z,102181.13
2023-05-18T01:54:58.169Z,102190.03
2023-05-18T01:57:34.164Z,102178.44
2023-05-18T02:00:08.174Z,102170.91
2023-05-18T02:02:48.497Z,102188.72
2023-05-18T02:05:27.354Z,102196.03
2023-05-18T02:07:58.417Z,102187.88
2023-05-18T02:10:30.106Z,102181.19
2023-05-18T02:13:03.098Z,102184.06
2023-05-18T02:15:48.239Z,102192.88
2023-05-18T02:18:31.235Z,102190.19
2023-05-18T02:21:11.594Z,102182.97
2023-05-18T02:23:43.604Z,102183.25
2023-05-18T02:26:14.197Z,102162.28
2023-05-18T02:28:49.739Z,102182.13
2023-05-18T02:31:19.944Z,102162.38
2023-05-18T02:33:50.111Z,102176.31
2023-05-18T02:36:22.777Z,102165.06
2023-05-18T02:38:53.196Z,102184.50
2023-05-18T02:41:24.248Z,102180.50
2023-05-18T02:43:57.070Z,102178.97
2023-05-18T02:46:27.756Z,102185.50
2023-05-18T02:49:07.197Z,102180.78
2023-05-18T02:51:39.157Z,102186.19
2023-05-18T02:54:10.070Z,102184.38
2023-05-18T02:56:45.113Z,102201.69
2023-05-18T02:59:37.757Z,102198.69
2023-05-18T03:02:09.739Z,102162.38
2023-05-18T03:04:40.344Z,102191.06
2023-05-18T03:07:10.710Z,102190.63
2023-05-18T03:09:41.067Z,102191.53
2023-05-18T03:12:12.033Z,102196.53
2023-05-18T03:14:44.901Z,102196.72
2023-05-18T03:17:15.220Z,102185.22
2023-05-18T03:19:51.567Z,102205.34
2023-05-18T03:22:24.161Z,102200.13
2023-05-18T03:24:55.809Z,102180.75
2023-05-18T03:27:32.388Z,102204.94
2023-05-18T03:30:05.252Z,102185.56
2023-05-18T03:32:37.349Z,102194.38
2023-05-18T03:35:08.562Z,102199.88
2023-05-18T03:37:42.538Z,102196.31
2023-05-18T03:40:15.848Z,102197.28
2023-05-18T03:42:47.837Z,102212.97
2023-05-18T03:45:21.283Z,102196.03
2023-05-18T03:47:51.607Z,102211.16
2023-05-18T03:50:29.571Z,102194.78
2023-05-18T03:53:01.437Z,102205.41
2023-05-18T03:55:33.110Z,102208.81
2023-05-18T03:58:05.029Z,102213.31
2023-05-18T04:00:38.006Z,102212.97
2023-05-18T04:03:08.155Z,102215.66
2023-05-18T04:05:38.995Z,102201.59
2023-05-18T04:08:09.100Z,102218.41
2023-05-18T04:10:41.083Z,102220.50
2023-05-18T04:13:11.440Z,102207.28
2023-05-18T04:15:46.062Z,102208.25
2023-05-18T04:18:22.398Z,102224.91
2023-05-18T04:20:53.006Z,102213.06
2023-05-18T04:23:23.474Z,102216.72
2023-05-18T04:25:56.509Z,102226.59
2023-05-18T04:28:30.607Z,102223.72
2023-05-18T04:31:07.012Z,102233.75
2023-05-18T04:33:46.787Z,102227.69
2023-05-18T04:36:21.260Z,102229.41
2023-05-18T04:38:52.290Z,102234.03
2023-05-18T04:41:23.417Z,102235.06
2023-05-18T04:43:56.393Z,102232.53
2023-05-18T04:46:29.744Z,102238.63
2023-05-18T04:49:03.849Z,102241.63
2023-05-18T04:51:39.855Z,102241.28
2023-05-18T04:54:16.385Z,102204.31
2023-05-18T04:56:47.510Z,102241.56
2023-05-18T04:59:17.751Z,102243.41
2023-05-18T05:01:53.521Z,102205.81
2023-05-18T05:04:24.934Z,102233.13
2023-05-18T05:06:55.197Z,102230.44
2023-05-18T05:09:29.103Z,102223.34
2023-05-18T05:12:10.042Z,102235.03
2023-05-18T05:14:43.227Z,102235.44
2023-05-18T05:17:17.746Z,102219.47
2023-05-18T05:19:47.862Z,102227.31
2023-05-18T05:22:18.533Z,102227.47
2023-05-18T05:24:48.815Z,102223.66
2023-05-18T05:27:19.082Z,102221.00
2023-05-18T05:29:50.871Z,102236.19
2023-05-18T05:32:23.688Z,102237.78
2023-05-18T05:34:56.474Z,102227.31
2023-05-18T05:37:27.320Z,102236.75
2023-05-18T05:39:57.671Z,102233.00
2023-05-18T05:42:27.865Z,102234.19
2023-05-18T05:44:58.170Z,102237.06
2023-05-18T05:47:32.540Z,102238.91
2023-05-18T05:50:04.483Z,102235.19
2023-05-18T05:52:34.690Z,102232.44
2023-05-18T05:55:10.906Z,102235.75
2023-05-18T05:57:42.941Z,102240.72
2023-05-18T06:00:15.708Z,102242.50
2023-05-18T06:02:53.990Z,102254.53
2023-05-18T06:05:36.123Z,102225.72
2023-05-18T06:08:09.412Z,102252.72
2023-05-18T06:10:40.878Z,102259.16
2023-05-18T06:13:12.142Z,102257.00
2023-05-18T06:16:03.440Z,102256.13
2023-05-18T06:18:40.311Z,102255.69
2023-05-18T06:21:12.500Z,102246.03
2023-05-18T06:23:43.231Z,102259.31
2023-05-18T06:26:32.239Z,102255.16
2023-05-18T06:29:32.198Z,102256.91
2023-05-18T06:32:15.929Z,102260.75
2023-05-18T06:34:55.229Z,102263.53
2023-05-18T06:37:26.609Z,102256.25
2023-05-18T06:40:02.714Z,102277.53
2023-05-18T06:42:33.995Z,102273.19
2023-05-18T06:45:23.227Z,102277.84
2023-05-18T06:47:56.767Z,102270.84
2023-05-18T06:50:32.213Z,102264.03
2023-05-18T06:53:04.869Z,102273.94
2023-05-18T06:55:38.005Z,102268.50
2023-05-18T06:58:08.235Z,102231.78
2023-05-18T07:00:38.713Z,102277.72
2023-05-18T07:03:11.647Z,102272.50
2023-05-18T07:05:44.370Z,102291.78
2023-05-18T07:08:17.570Z,102286.56
2023-05-18T07:10:48.676Z,102265.47
2023-05-18T07:13:21.713Z,102261.34
2023-05-18T07:15:51.939Z,102283.25
2023-05-18T07:18:22.732Z,102282.53
2023-05-18T07:20:55.584Z,102276.06
2023-05-18T07:23:25.680Z,102284.03
2023-05-18T07:25:55.849Z,102281.34
2023-05-18T07:28:26.221Z,102282.38
2023-05-18T07:30:59.977Z,102292.84
2023-05-18T07:33:30.143Z,102283.66
2023-05-18T07:36:05.128Z,102286.72
2023-05-18T07:38:36.031Z,102292.66
2023-05-18T07:41:07.181Z,102288.00
2023-05-18T07:43:44.741Z,102289.06
2023-05-18T07:46:18.812Z,102286.19
2023-05-18T07:49:10.242Z,102293.19
2023-05-18T07:51:44.558Z,102287.25
2023-05-18T07:54:16.138Z,102286.53
2023-05-18T07:56:47.061Z,102267.63
2023-05-18T07:59:17.410Z,102277.53
2023-05-18T08:01:49.414Z,102284.41
2023-05-18T08:04:19.767Z,102284.75
2023-05-18T08:06:56.409Z,102271.78
2023-05-18T08:09:26.912Z,102264.91
2023-05-18T08:11:57.753Z,102273.88
2023-05-18T08:14:28.057Z,102266.44
2023-05-18T08:16:58.667Z,102252.53
2023-05-18T08:19:29.610Z,102273.19
2023-05-18T08:22:02.468Z,102240.19
2023-05-18T08:24:33.420Z,102272.69
2023-05-18T08:27:08.572Z,102278.44
2023-05-18T08:29:39.294Z,102283.78
2023-05-18T08:32:12.681Z,102260.34
2023-05-18T08:34:43.932Z,102264.13
2023-05-18T08:37:16.772Z,102266.63
2023-05-18T08:39:49.689Z,102267.13
2023-05-18T08:42:29.518Z,102268.16
2023-05-18T08:45:13.985Z,102259.59
2023-05-18T08:47:47.194Z,102252.50
2023-05-18T08:50:26.779Z,102245.56
2023-05-18T08:53:04.669Z,102248.69
2023-05-18T08:55:37.513Z,102248.00
2023-05-18T08:58:12.263Z,102252.44
2023-05-18T09:00:45.840Z,102241.06
2023-05-18T09:03:17.110Z,102255.09
2023-05-18T09:05:48.916Z,102246.66
2023-05-18T09:08:22.784Z,102258.00
2023-05-18T09:10:54.716Z,102255.56
2023-05-18T09:13:27.201Z,102206.63
2023-05-18T09:15:57.693Z,102246.22
2023-05-18T09:18:28.617Z,102245.03
2023-05-18T09:20:59.107Z,102235.63
2023-05-18T09:23:32.101Z,102239.50
2023-05-18T09:26:02.349Z,102241.81
2023-05-18T09:28:36.211Z,102200.22
2023-05-18T09:31:08.015Z,102209.28
2023-05-18T09:33:39.971Z,102222.13
2023-05-18T09:36:12.454Z,102224.81
2023-05-18T09:38:47.419Z,102234.56
2023-05-18T09:41:19.466Z,102221.63
2023-05-18T09:43:51.655Z,102228.31
2023-05-18T09:46:23.089Z,102226.97
2023-05-18T09:48:55.597Z,102217.00
2023-05-18T09:51:25.895Z,102217.09
2023-05-18T09:54:05.280Z,102213.53
2023-05-18T09:56:39.046Z,102220.38
2023-05-18T09:59:13.720Z,102223.88
2023-05-18T10:02:01.256Z,102222.50
2023-05-18T10:04:41.869Z,102216.88
2023-05-18T10:07:14.796Z,102199.59
2023-05-18T10:09:49.146Z,102220.50
2023-05-18T10:12:20.063Z,102211.09
2023-05-18T10:14:50.254Z,102211.63
2023-05-18T10:17:20.611Z,102211.00
2023-05-18T10:19:55.579Z,102210.25
2023-05-18T10:22:27.171Z,102215.63
2023-05-18T10:25:04.045Z,102212.50
2023-05-18T10:27:38.290Z,102198.84
2023-05-18T10:30:11.211Z,102207.47
2023-05-18T10:32:42.701Z,102215.38
2023-05-18T10:35:14.577Z,102210.75
2023-05-18T10:37:49.527Z,102212.31
2023-05-18T10:40:24.512Z,102206.88
2023-05-18T10:42:56.544Z,102190.06
2023-05-18T10:45:27.668Z,102201.50
2023-05-18T10:48:00.324Z,102178.41
2023-05-18T10:50:44.882Z,102188.97
2023-05-18T10:53:17.168Z,102193.09
2023-05-18T10:55:50.431Z,102194.59
2023-05-18T10:58:23.240Z,102195.56
2023-05-18T11:00:55.716Z,102187.34
2023-05-18T11:03:27.456Z,102189.47
2023-05-18T11:06:09.034Z,102179.91
2023-05-18T11:08:46.832Z,102173.84
2023-05-18T11:11:20.033Z,102162.69
2023-05-18T11:13:52.390Z,102163.41
2023-05-18T11:16:23.482Z,102170.44
2023-05-18T11:18:55.292Z,102168.00
2023-05-18T11:21:54.975Z,102163.63
2023-05-18T11:24:32.847Z,102166.41
2023-05-18T11:27:19.746Z,102161.97
2023-05-18T11:29:55.356Z,102165.25
2023-05-18T11:32:34.515Z,102166.19
2023-05-18T11:35:08.962Z,102166.69
2023-05-18T11:37:52.196Z,102157.56
2023-05-18T11:40:52.868Z,102153.22
2023-05-18T11:43:27.937Z,102158.03
2023-05-18T11:46:00.439Z,102161.56
2023-05-18T11:48:35.020Z,102154.22
2023-05-18T11:51:09.531Z,102156.41
2023-05-18T11:53:42.201Z,102150.00
2023-05-18T11:56:14.687Z,102150.47
2023-05-18T11:58:50.158Z,102134.88
2023-05-18T12:01:23.839Z,102149.53
2023-05-18T12:03:54.093Z,102151.59
2023-05-18T12:06:24.292Z,102141.59
2023-05-18T12:08:54.444Z,102136.81
2023-05-18T12:11:25.108Z,102134.56
2023-05-18T12:13:58.839Z,102145.31
2023-05-18T12:16:36.997Z,102136.66
2023-05-18T12:19:07.506Z,102134.72
2023-05-18T12:21:40.796Z,102114.53
2023-05-18T12:24:11.917Z,102134.13
2023-05-18T12:26:46.803Z,102130.53
2023-05-18T12:29:20.720Z,102136.81
2023-05-18T12:31:54.700Z,102129.94
2023-05-18T12:34:25.033Z,102089.41
2023-05-18T12:36:56.971Z,102126.25
2023-05-18T12:39:30.503Z,102131.69
2023-05-18T12:42:17.543Z,102123.03
2023-05-18T12:44:51.026Z,102125.50
2023-05-18T12:47:23.830Z,102108.47
2023-05-18T12:49:54.192Z,102114.91
2023-05-18T12:52:24.616Z,102106.25
2023-05-18T12:55:00.155Z,102111.31
2023-05-18T12:57:31.330Z,102119.47
2023-05-18T13:00:11.609Z,102113.06
2023-05-18T13:02:42.089Z,102100.91
2023-05-18T13:05:14.212Z,102104.19
2023-05-18T13:07:46.513Z,102101.72
2023-05-18T13:10:19.991Z,102105.59
2023-05-18T13:12:51.710Z,102098.78
2023-05-18T13:15:26.517Z,102108.84
2023-05-18T13:18:00.965Z,102105.72
2023-05-18T13:20:36.727Z,102111.13
2023-05-18T13:23:11.429Z,102100.19
2023-05-18T13:25:41.970Z,102093.81
2023-05-18T13:28:13.926Z,102099.03
2023-05-18T13:30:50.872Z,102097.97
2023-05-18T13:33:21.734Z,102090.38
2023-05-18T13:35:52.517Z,102096.06
2023-05-18T13:38:22.717Z,102089.00
2023-05-18T13:40:52.793Z,102074.75
2023-05-18T13:43:22.858Z,102091.66
2023-05-18T13:45:55.557Z,102082.44
2023-05-18T13:48:28.284Z,102075.38
2023-05-18T13:50:58.680Z,102079.56
2023-05-18T13:53:29.486Z,102065.50
2023-05-18T13:56:02.300Z,102039.25
2023-05-18T13:58:36.237Z,102061.31
2023-05-18T14:01:10.663Z,102064.56
2023-05-18T14:03:43.629Z,102061.91
2023-05-18T14:06:13.945Z,102061.34
2023-05-18T14:08:43.984Z,102061.28
2023-05-18T14:11:13.974Z,102054.13
2023-05-18T14:13:44.094Z,102054.28
2023-05-18T14:16:16.787Z,102053.88
2023-05-18T14:18:46.942Z,102043.84
2023-05-18T14:21:18.435Z,102048.59
2023-05-18T14:23:53.054Z,102042.72
2023-05-18T14:26:23.603Z,102041.31
2023-05-18T14:28:53.619Z,102025.44
2023-05-18T14:31:26.449Z,102040.47
2023-05-18T14:33:56.561Z,102044.97
2023-05-18T14:36:34.421Z,102036.81
2023-05-18T14:39:07.027Z,102015.28
2023-05-18T14:41:39.526Z,102037.81
2023-05-18T14:44:10.793Z,102023.34
2023-05-18T14:46:43.976Z,102026.72
2023-05-18T14:49:21.259Z,102025.75
2023-05-18T14:51:51.411Z,102032.50
2023-05-18T14:54:22.558Z,102032.66
2023-05-18T14:56:52.723Z,102045.63
2023-05-18T14:59:23.903Z,102032.50
2023-05-18T15:01:58.689Z,102037.22
2023-05-18T15:04:32.725Z,102026.47
2023-05-18T15:07:05.876Z,102017.88
2023-05-18T15:09:37.695Z,102021.91
2023-05-18T15:12:08.770Z,102026.16
2023-05-18T15:14:51.811Z,102025.47
2023-05-18T15:17:24.438Z,102026.47
2023-05-18T15:20:06.652Z,102021.50
2023-05-18T15:22:38.613Z,102026.63
2023-05-18T15:25:11.480Z,102023.94
2023-05-18T15:27:42.743Z,101997.09
2023-05-18T15:30:14.108Z,102014.72
2023-05-18T15:32:47.355Z,102014.69
2023-05-18T15:35:21.580Z,102008.38
2023-05-18T15:37:53.122Z,102013.47
2023-05-18T15:40:23.320Z,102004.69
2023-05-18T15:42:53.313Z,101999.75
2023-05-18T15:45:23.480Z,102011.75
2023-05-18T15:47:56.115Z,102010.31
2023-05-18T15:50:26.943Z,102008.00
2023-05-18T15:53:00.077Z,102002.31
2023-05-18T15:55:30.182Z,101991.28
2023-05-18T15:58:00.471Z,101969.03
2023-05-18T16:00:39.219Z,101992.25
2023-05-18T16:03:12.783Z,101994.69
2023-05-18T16:05:43.164Z,101992.41
2023-05-18T16:08:13.204Z,101953.38
2023-05-18T16:10:43.556Z,101980.94
2023-05-18T16:13:13.750Z,101993.16
2023-05-18T16:15:51.254Z,101993.38
2023-05-18T16:18:24.256Z,101991.94
2023-05-18T16:20:54.585Z,101994.78
2023-05-18T16:23:24.659Z,101966.97
2023-05-18T16:25:55.625Z,101991.13
2023-05-18T16:28:25.862Z,101997.25
2023-05-18T16:30:55.905Z,101994.22
2023-05-18T16:33:33.014Z,101993.19
2023-05-18T16:36:05.329Z,101996.69
2023-05-18T16:38:37.606Z,102000.72
2023-05-18T16:41:09.266Z,102000.81
2023-05-18T16:43:39.698Z,101998.78
2023-05-18T16:46:10.229Z,102000.94
2023-05-18T16:48:43.200Z,102007.13
2023-05-18T16:51:13.476Z,101982.25
2023-05-18T16:53:44.095Z,101969.16
2023-05-18T16:56:14.212Z,101992.28
2023-05-18T16:58:55.387Z,101989.97
2023-05-18T17:01:28.950Z,101988.47
2023-05-18T17:04:02.362Z,101989.94
2023-05-18T17:06:34.724Z,101981.91
2023-05-18T17:09:07.872Z,101985.22
2023-05-18T17:11:37.984Z,101992.78
2023-05-18T17:14:08.065Z,101985.63
2023-05-18T17:16:43.486Z,101994.59
2023-05-18T17:19:16.534Z,101989.38
2023-05-18T17:21:51.081Z,101985.50
2023-05-18T17:24:21.195Z,101995.19
2023-05-18T17:26:51.821Z,101991.75
2023-05-18T17:29:22.472Z,101987.91
2023-05-18T17:31:53.772Z,101998.53
2023-05-18T17:34:26.886Z,101995.72
2023-05-18T17:37:00.864Z,101983.03
2023-05-18T17:39:32.828Z,101991.56
2023-05-18T17:42:07.299Z,101978.59
2023-05-18T17:44:37.358Z,101979.38
2023-05-18T17:47:10.732Z,101981.72
2023-05-18T17:49:44.171Z,101987.69
2023-05-18T17:52:20.669Z,101969.94
2023-05-18T17:54:52.667Z,101988.94
2023-05-18T17:57:23.177Z,101997.41
2023-05-18T17:59:53.600Z,101999.09
2023-05-18T18:02:23.957Z,101981.19
2023-05-18T18:04:57.066Z,101998.94
2023-05-18T18:07:27.274Z,101975.97
2023-05-18T18:09:57.797Z,101989.53
2023-05-18T18:12:27.984Z,101989.84
2023-05-18T18:14:58.161Z,101989.25
2023-05-18T18:17:29.201Z,101992.09
2023-05-18T18:20:02.135Z,101995.88
2023-05-18T18:22:35.722Z,101997.03
2023-05-18T18:25:06.734Z,101986.63
2023-05-18T18:27:36.951Z,101978.72
2023-05-18T18:30:07.767Z,102001.25
2023-05-18T18:32:37.992Z,102000.00
2023-05-18T18:35:11.694Z,102002.56
2023-05-18T18:37:43.173Z,102013.16
2023-05-18T18:40:14.679Z,102016.31
2023-05-18T18:42:45.020Z,102015.22
2023-05-18T18:45:15.450Z,102018.50
2023-05-18T18:47:45.549Z,102025.06
2023-05-18T18:50:18.311Z,102021.16
2023-05-18T18:52:48.358Z,102022.00
2023-05-18T18:55:19.241Z,102030.06
2023-05-18T18:57:49.749Z,102020.66
2023-05-18T19:00:21.571Z,102020.03
2023-05-18T19:02:54.844Z,102026.56
2023-05-18T19:05:28.564Z,102025.81
2023-05-18T19:07:58.684Z,102032.91
2023-05-18T19:10:29.059Z,102039.13
2023-05-18T19:13:00.266Z,102039.41
2023-05-18T19:15:30.732Z,102016.38
2023-05-18T19:18:01.151Z,102039.94
2023-05-18T19:20:33.836Z,102038.25
2023-05-18T19:23:05.004Z,102027.44
2023-05-18T19:25:35.163Z,102043.59
2023-05-18T19:28:05.286Z,102037.88
2023-05-18T19:30:35.448Z,102051.13
2023-05-18T19:33:06.913Z,102052.44
2023-05-18T19:35:39.823Z,102051.94
2023-05-18T19:38:10.047Z,102054.72
2023-05-18T19:40:40.181Z,102052.63
2023-05-18T19:43:10.989Z,102055.25
2023-05-18T19:45:41.165Z,102061.94
2023-05-18T19:48:11.458Z,102058.19
2023-05-18T19:50:44.621Z,102065.31
2023-05-18T19:53:17.181Z,102054.72
2023-05-18T19:55:48.750Z,102063.91
2023-05-18T19:58:19.137Z,102044.44
2023-05-18T20:00:49.943Z,102069.63
2023-05-18T20:03:20.492Z,102059.63
2023-05-18T20:05:53.170Z,102054.66
2023-05-18T20:08:23.546Z,102065.47
2023-05-18T20:10:54.098Z,102060.84
2023-05-18T20:13:24.260Z,102063.97
2023-05-18T20:15:54.429Z,102050.50
2023-05-18T20:18:26.188Z,102065.66
2023-05-18T20:20:59.216Z,102064.22
2023-05-18T20:23:29.647Z,102070.59
2023-05-18T20:26:00.252Z,102071.19
2023-05-18T20:28:31.735Z,102081.69
2023-05-18T20:31:02.143Z,102079.41
2023-05-18T20:33:34.453Z,102084.66
2023-05-18T20:36:09.363Z,102090.69
2023-05-18T20:38:39.456Z,102090.75
2023-05-18T20:41:09.918Z,102093.69
2023-05-18T20:43:40.482Z,102094.16
2023-05-18T20:46:13.750Z,102091.81
2023-05-18T20:48:44.865Z,102113.16
2023-05-18T20:51:20.348Z,102110.31
2023-05-18T20:53:51.989Z,102107.25
2023-05-18T20:56:22.192Z,102103.50
2023-05-18T20:58:52.539Z,102089.66
2023-05-18T21:01:24.126Z,102104.44
2023-05-18T21:03:54.548Z,102106.31
2023-05-18T21:06:27.519Z,102100.91
2023-05-18T21:08:57.613Z,102094.28
2023-05-18T21:11:27.668Z,102108.53
2023-05-18T21:13:57.793Z,102109.06
2023-05-18T21:16:28.122Z,102109.44
2023-05-18T21:18:58.398Z,102107.50
2023-05-18T21:21:31.922Z,102108.75
2023-05-18T21:24:02.081Z,102106.81
2023-05-18T21:26:32.234Z,102100.53
2023-05-18T21:29:02.287Z,102104.13
2023-05-18T21:31:32.513Z,102104.13
2023-05-18T21:34:02.775Z,102100.22
2023-05-18T21:36:36.481Z,102104.19
2023-05-18T21:39:09.516Z,102098.28
2023-05-18T21:41:40.657Z,102101.19
2023-05-18T21:44:11.408Z,102110.69
2023-05-18T21:46:41.681Z,102105.16
2023-05-18T21:49:12.730Z,102097.06
2023-05-18T21:51:45.512Z,102101.19
2023-05-18T21:54:15.719Z,102098.88
2023-05-18T21:56:45.886Z,102099.25
2023-05-18T21:59:16.141Z,102096.38
2023-05-18T22:01:46.342Z,102102.16
2023-05-18T22:04:16.499Z,102094.97
2023-05-18T22:06:49.225Z,102094.59
2023-05-18T22:09:19.353Z,102081.69
2023-05-18T22:11:49.383Z,102094.47
2023-05-18T22:14:19.535Z,102100.06
2023-05-18T22:16:50.132Z,102101.16
2023-05-18T22:19:20.348Z,102104.75
2023-05-18T22:21:53.949Z,102101.53
2023-05-18T22:24:24.121Z,102100.84
2023-05-18T22:26:54.275Z,102106.06
2023-05-18T22:29:24.378Z,102104.59
2023-05-18T22:31:54.528Z,102098.16
2023-05-18T22:34:24.923Z,102106.97
2023-05-18T22:36:57.570Z,102080.34
2023-05-18T22:39:28.031Z,102088.47
2023-05-18T22:42:01.449Z,102095.63
2023-05-18T22:44:34.709Z,102097.63
2023-05-18T22:47:07.073Z,102099.59
2023-05-18T22:49:37.098Z,102099.09
2023-05-18T22:52:16.645Z,102098.69
2023-05-18T22:54:48.822Z,102097.63
2023-05-18T22:57:21.187Z,102096.19
2023-05-18T22:59:53.577Z,102098.31
2023-05-18T23:02:23.854Z,102095.81
2023-05-18T23:04:54.058Z,102090.44
2023-05-18T23:07:26.960Z,102088.28
2023-05-18T23:09:57.892Z,102088.63
2023-05-18T23:12:30.503Z,102100.84
2023-05-18T23:15:02.864Z,102099.78
2023-05-18T23:17:42.442Z,102100.28
2023-05-18T23:20:15.692Z,102103.34
2023-05-18T23:22:48.316Z,102093.59
2023-05-18T23:25:18.755Z,102099.19
2023-05-18T23:27:49.457Z,102071.47
2023-05-18T23:30:19.978Z,102095.75
2023-05-18T23:32:53.451Z,102091.25
2023-05-18T23:35:24.181Z,102092.16
2023-05-18T23:38:04.887Z,102098.97
2023-05-18T23:40:36.207Z,102041.47
2023-05-18T23:43:12.555Z,102083.69
2023-05-18T23:45:43.242Z,102089.47
2023-05-18T23:48:14.676Z,102087.47
2023-05-18T23:50:46.775Z,102086.22
2023-05-18T23:53:27.571Z,102081.69
2023-05-18T23:56:00.176Z,102090.88
2023-05-18T23:58:41.629Z,102096.28
